createdAt,value
2022-09-27T00:01:13.908Z,0.93
2022-09-27T00:03:42.200Z,0.85
2022-09-27T00:06:16.695Z,0.70
2022-09-27T00:08:44.619Z,1.10
2022-09-27T00:11:29.174Z,1.10
2022-09-27T00:13:58.875Z,1.00
2022-09-27T00:16:30.280Z,0.88
2022-09-27T00:19:08.053Z,0.80
2022-09-27T00:21:36.104Z,0.90
2022-09-27T00:24:03.985Z,1.00
2022-09-27T00:26:31.994Z,0.50
2022-09-27T00:28:59.711Z,1.38
2022-09-27T00:31:30.872Z,0.63
2022-09-27T00:34:02.304Z,0.80
2022-09-27T00:36:31.812Z,1.05
2022-09-27T00:39:01.127Z,0.98
2022-09-27T00:41:34.323Z,0.80
2022-09-27T00:44:29.348Z,0.80
2022-09-27T00:47:27.669Z,1.05
2022-09-27T00:50:14.333Z,0.63
2022-09-27T00:53:03.805Z,0.55
2022-09-27T00:55:40.429Z,0.60
2022-09-27T00:58:09.723Z,0.80
2022-09-27T01:00:43.690Z,0.82
2022-09-27T01:03:18.500Z,0.60
2022-09-27T01:05:46.413Z,0.60
2022-09-27T01:08:14.009Z,1.05
2022-09-27T01:11:02.148Z,1.30
2022-09-27T01:13:49.485Z,1.38
2022-09-27T01:16:33.350Z,1.67
2022-09-27T01:19:17.264Z,1.08
2022-09-27T01:22:11.477Z,0.80
2022-09-27T01:24:51.201Z,0.95
2022-09-27T01:27:51.484Z,0.70
2022-09-27T01:30:29.208Z,0.85
2022-09-27T01:33:23.130Z,0.80
2022-09-27T01:35:53.389Z,0.82
2022-09-27T01:38:41.952Z,0.80
2022-09-27T01:41:56.804Z,0.60
2022-09-27T01:44:54.330Z,0.60
2022-09-27T01:47:37.353Z,0.68
2022-09-27T01:50:37.547Z,0.90
2022-09-27T01:53:23.047Z,0.80
2022-09-27T01:56:28.819Z,0.85
2022-09-27T01:59:20.269Z,0.50
2022-09-27T02:02:00.896Z,1.83
2022-09-27T02:04:43.978Z,0.68
2022-09-27T02:07:44.514Z,0.90
2022-09-27T02:10:19.764Z,1.05
2022-09-27T02:13:28.330Z,0.82
2022-09-27T02:16:32.993Z,1.17
2022-09-27T02:19:19.173Z,0.80
2022-09-27T02:22:02.203Z,0.82
2022-09-27T02:25:01.603Z,0.85
2022-09-27T02:27:38.852Z,1.00
2022-09-27T02:30:14.896Z,0.77
2022-09-27T02:32:45.869Z,0.85
2022-09-27T02:35:23.728Z,0.77
2022-09-27T02:37:51.998Z,0.50
2022-09-27T02:40:20.226Z,0.50
2022-09-27T02:42:48.276Z,0.75
2022-09-27T02:45:18.463Z,0.80
2022-09-27T02:48:04.043Z,0.73
2022-09-27T02:51:02.275Z,0.50
2022-09-27T02:54:14.471Z,0.70
2022-09-27T02:57:25.559Z,1.23
2022-09-27T03:00:20.385Z,1.25
2022-09-27T03:03:27.046Z,1.25
2022-09-27T03:06:08.990Z,1.35
2022-09-27T03:08:38.720Z,1.17
2022-09-27T03:11:07.748Z,1.30
2022-09-27T03:13:55.800Z,1.30
2022-09-27T03:16:27.502Z,1.27
2022-09-27T03:19:10.206Z,0.85
2022-09-27T03:22:13.019Z,0.90
2022-09-27T03:24:41.038Z,1.17
2022-09-27T03:27:10.150Z,1.00
2022-09-27T03:29:37.957Z,1.15
2022-09-27T03:32:08.909Z,1.45
2022-09-27T03:34:51.073Z,1.98
2022-09-27T03:37:18.886Z,1.20
2022-09-27T03:39:46.646Z,1.20
2022-09-27T03:42:14.390Z,1.90
2022-09-27T03:44:48.418Z,1.67
2022-09-27T03:47:16.538Z,1.92
2022-09-27T03:49:44.815Z,2.25
2022-09-27T03:52:12.713Z,2.08
2022-09-27T03:54:40.375Z,2.10
2022-09-27T03:57:08.260Z,2.17
2022-09-27T03:59:37.680Z,2.13
2022-09-27T04:02:27.047Z,2.70
2022-09-27T04:05:29.974Z,2.58
2022-09-27T04:08:01.414Z,2.10
2022-09-27T04:10:32.040Z,2.53
2022-09-27T04:13:00.492Z,1.67
2022-09-27T04:15:32.873Z,2.35
2022-09-27T04:18:20.722Z,2.35
2022-09-27T04:21:07.061Z,2.10
2022-09-27T04:23:36.592Z,1.98
2022-09-27T04:26:04.814Z,2.40
2022-09-27T04:28:54.920Z,2.20
2022-09-27T04:31:23.691Z,2.20
2022-09-27T04:34:46.227Z,1.90
2022-09-27T04:37:21.288Z,1.98
2022-09-27T04:39:51.556Z,1.83
2022-09-27T04:42:19.970Z,2.03
2022-09-27T04:44:48.009Z,2.10
2022-09-27T04:47:15.946Z,2.08
2022-09-27T04:49:43.677Z,2.00
2022-09-27T04:52:11.395Z,2.08
2022-09-27T04:54:39.144Z,2.00
2022-09-27T04:57:12.859Z,1.90
2022-09-27T04:59:42.732Z,1.60
2022-09-27T05:02:10.873Z,2.05
2022-09-27T05:05:08.045Z,1.67
2022-09-27T05:07:40.080Z,2.13
2022-09-27T05:10:12.910Z,1.75
2022-09-27T05:12:41.052Z,1.50
2022-09-27T05:15:09.581Z,1.50
2022-09-27T05:18:12.737Z,1.92
2022-09-27T05:21:01.084Z,1.60
2022-09-27T05:23:37.385Z,2.00
2022-09-27T05:26:06.850Z,1.88
2022-09-27T05:28:35.304Z,1.63
2022-09-27T05:31:03.049Z,1.67
2022-09-27T05:33:31.448Z,1.52
2022-09-27T05:36:17.886Z,1.70
2022-09-27T05:38:45.753Z,2.35
2022-09-27T05:41:14.432Z,2.25
2022-09-27T05:43:42.140Z,1.80
2022-09-27T05:46:09.858Z,2.20
2022-09-27T05:48:39.520Z,1.80
2022-09-27T05:51:08.292Z,2.65
2022-09-27T05:53:39.648Z,1.70
2022-09-27T05:56:13.408Z,2.00
2022-09-27T05:59:16.311Z,2.00
2022-09-27T06:02:19.138Z,2.00
2022-09-27T06:07:52.880Z,1.98
2022-09-27T06:10:30.880Z,1.63
2022-09-27T06:13:05.468Z,1.70
2022-09-27T06:15:39.256Z,1.17
2022-09-27T06:18:15.075Z,1.45
2022-09-27T06:20:44.653Z,0.90
2022-09-27T06:23:24.075Z,1.10
2022-09-27T06:25:53.904Z,0.85
2022-09-27T06:28:24.499Z,1.20
2022-09-27T06:30:56.660Z,1.55
2022-09-27T06:33:29.728Z,1.27
2022-09-27T06:36:05.439Z,1.20
2022-09-27T06:38:34.798Z,0.90
2022-09-27T06:41:13.404Z,1.13
2022-09-27T06:43:59.506Z,1.50
2022-09-27T06:46:33.014Z,1.30
2022-09-27T06:49:25.447Z,1.30
2022-09-27T06:51:55.467Z,1.33
2022-09-27T06:54:23.648Z,1.38
2022-09-27T06:56:51.336Z,1.48
2022-09-27T06:59:37.613Z,1.42
2022-09-27T07:02:25.718Z,1.50
2022-09-27T07:05:10.481Z,1.75
2022-09-27T07:07:44.420Z,1.40
2022-09-27T07:10:12.289Z,1.55
2022-09-27T07:12:40.233Z,1.92
2022-09-27T07:15:11.395Z,1.90
2022-09-27T07:17:39.362Z,1.60
2022-09-27T07:20:07.928Z,1.38
2022-09-27T07:22:45.193Z,1.60
2022-09-27T07:25:14.582Z,1.67
2022-09-27T07:27:42.478Z,1.80
2022-09-27T07:30:12.779Z,2.08
2022-09-27T07:32:41.110Z,2.42
2022-09-27T07:35:14.565Z,1.90
2022-09-27T07:37:43.192Z,2.15
2022-09-27T07:40:12.106Z,1.95
2022-09-27T07:42:41.243Z,2.05
2022-09-27T07:45:11.351Z,1.88
2022-09-27T07:48:11.873Z,2.13
2022-09-27T07:50:55.685Z,2.08
2022-09-27T07:53:43.234Z,2.00
2022-09-27T07:59:08.893Z,1.90
2022-09-27T08:01:36.626Z,2.17
2022-09-27T08:04:05.621Z,2.00
2022-09-27T08:06:33.465Z,2.13
2022-09-27T08:09:01.811Z,1.90
2022-09-27T08:11:30.600Z,2.20
2022-09-27T08:13:58.336Z,2.35
2022-09-27T08:16:33.758Z,2.38
2022-09-27T08:19:20.100Z,2.10
2022-09-27T08:22:23.075Z,1.80
2022-09-27T08:25:05.403Z,2.33
2022-09-27T08:28:04.654Z,2.13
2022-09-27T08:30:45.469Z,2.10
2022-09-27T08:33:13.150Z,2.22
2022-09-27T08:35:41.438Z,1.70
2022-09-27T08:38:10.499Z,1.98
2022-09-27T08:40:55.098Z,1.30
2022-09-27T08:43:41.864Z,1.43
2022-09-27T08:46:51.736Z,1.10
2022-09-27T08:49:55.692Z,1.38
2022-09-27T08:52:39.938Z,1.25
2022-09-27T08:55:37.021Z,1.20
2022-09-27T08:58:48.602Z,1.20
2022-09-27T09:01:26.340Z,1.42
2022-09-27T09:04:29.926Z,1.10
2022-09-27T09:07:25.242Z,1.00
2022-09-27T09:10:52.026Z,1.00
2022-09-27T09:14:24.562Z,1.00
2022-09-27T09:17:07.379Z,1.08
2022-09-27T09:20:36.101Z,0.85
2022-09-27T09:24:00.798Z,1.40
2022-09-27T09:26:57.756Z,1.08
2022-09-27T09:30:10.823Z,1.60
2022-09-27T09:33:27.249Z,1.80
2022-09-27T09:36:34.898Z,1.27
2022-09-27T09:39:41.702Z,1.23
2022-09-27T09:42:36.140Z,1.25
2022-09-27T09:45:30.606Z,0.93
2022-09-27T09:48:17.005Z,1.00
2022-09-27T09:50:51.896Z,0.65
2022-09-27T09:53:59.163Z,0.80
2022-09-27T09:56:45.757Z,0.52
2022-09-27T09:59:28.172Z,0.90
2022-09-27T10:02:10.850Z,0.83
2022-09-27T10:04:38.738Z,0.95
2022-09-27T10:07:08.532Z,0.80
2022-09-27T10:09:36.672Z,0.80
2022-09-27T10:12:23.011Z,0.57
2022-09-27T10:14:54.444Z,0.80
2022-09-27T10:17:30.274Z,1.00
2022-09-27T10:19:59.798Z,1.00
2022-09-27T10:22:36.902Z,0.90
2022-09-27T10:25:18.344Z,1.10
2022-09-27T10:28:09.871Z,1.20
2022-09-27T10:30:39.566Z,0.85
2022-09-27T10:33:19.846Z,1.05
2022-09-27T10:35:53.344Z,0.93
2022-09-27T10:38:35.896Z,0.95
2022-09-27T10:41:23.576Z,1.00
2022-09-27T10:43:56.379Z,1.25
2022-09-27T10:46:34.173Z,1.35
2022-09-27T10:49:37.501Z,1.80
2022-09-27T10:52:24.282Z,1.40
2022-09-27T10:55:09.087Z,2.05
2022-09-27T10:57:44.355Z,1.13
2022-09-27T11:00:37.274Z,1.00
2022-09-27T11:03:15.144Z,1.17
2022-09-27T11:05:43.198Z,1.02
2022-09-27T11:08:24.249Z,0.90
2022-09-27T11:11:06.918Z,1.42
2022-09-27T11:13:37.914Z,1.35
2022-09-27T11:16:34.950Z,1.00
2022-09-27T11:19:45.777Z,1.23
2022-09-27T11:22:54.659Z,1.17
2022-09-27T11:25:46.295Z,1.63
2022-09-27T11:28:39.291Z,1.05
2022-09-27T11:32:22.613Z,1.08
2022-09-27T11:35:10.962Z,1.05
2022-09-27T11:38:06.619Z,1.27
2022-09-27T11:41:17.996Z,0.98
2022-09-27T11:44:03.391Z,1.17
2022-09-27T11:46:41.652Z,1.10
2022-09-27T11:50:07.778Z,1.70
2022-09-27T11:53:21.569Z,1.33
2022-09-27T11:56:28.623Z,1.48
2022-09-27T11:59:27.875Z,1.48
2022-09-27T12:02:46.768Z,1.30
2022-09-27T12:05:39.035Z,1.27
2022-09-27T12:08:44.214Z,1.83
2022-09-27T12:11:22.477Z,1.50
2022-09-27T12:14:10.492Z,1.30
2022-09-27T12:16:40.471Z,1.85
2022-09-27T12:19:30.833Z,1.75
2022-09-27T12:22:10.927Z,1.40
2022-09-27T12:24:44.071Z,1.40
2022-09-27T12:27:41.180Z,1.13
2022-09-27T12:30:14.201Z,1.20
2022-09-27T12:33:06.368Z,0.75
2022-09-27T12:36:09.685Z,1.00
2022-09-27T12:39:14.417Z,0.70
2022-09-27T12:42:01.990Z,0.60
2022-09-27T12:44:43.881Z,0.47
2022-09-27T12:47:42.670Z,0.52
2022-09-27T12:50:52.843Z,0.70
2022-09-27T12:54:05.212Z,0.55
2022-09-27T12:56:46.064Z,0.70
2022-09-27T12:59:46.257Z,0.90
2022-09-27T13:02:32.654Z,0.70
2022-09-27T13:05:48.472Z,0.80
2022-09-27T13:09:13.333Z,0.93
2022-09-27T13:12:19.306Z,0.90
2022-09-27T13:15:24.499Z,1.23
2022-09-27T13:17:57.389Z,0.90
2022-09-27T13:20:46.464Z,1.30
2022-09-27T13:23:38.655Z,0.90
2022-09-27T13:26:45.195Z,1.00
2022-09-27T13:31:58.926Z,0.73
2022-09-27T13:35:19.732Z,0.65
2022-09-27T13:37:59.477Z,0.82
2022-09-27T13:40:40.386Z,0.90
2022-09-27T13:43:10.866Z,0.93
2022-09-27T13:45:57.326Z,1.65
2022-09-27T13:49:11.987Z,1.17
2022-09-27T13:52:37.903Z,0.77
2022-09-27T13:55:51.940Z,1.38
2022-09-27T13:58:57.885Z,1.48
2022-09-27T14:02:12.547Z,1.38
2022-09-27T14:04:51.440Z,1.10
2022-09-27T14:07:26.885Z,1.10
2022-09-27T14:10:01.567Z,1.50
2022-09-27T14:12:40.072Z,1.15
2022-09-27T14:15:23.230Z,1.27
2022-09-27T14:17:53.349Z,1.23
2022-09-27T14:20:44.301Z,1.33
2022-09-27T14:23:26.305Z,1.40
2022-09-27T14:25:56.637Z,1.00
2022-09-27T14:28:29.270Z,1.00
2022-09-27T14:31:23.377Z,1.20
2022-09-27T14:34:11.586Z,0.80
2022-09-27T14:37:03.960Z,1.00
2022-09-27T14:39:38.285Z,1.00
2022-09-27T14:42:28.603Z,0.80
2022-09-27T14:45:05.213Z,1.08
2022-09-27T14:47:33.397Z,1.00
2022-09-27T14:50:17.251Z,1.27
2022-09-27T14:52:45.269Z,1.00
2022-09-27T14:55:22.366Z,1.02
2022-09-27T14:57:59.938Z,1.30
2022-09-27T15:00:32.300Z,1.17
2022-09-27T15:03:04.885Z,1.00
2022-09-27T15:05:35.119Z,1.13
2022-09-27T15:08:06.398Z,1.00
2022-09-27T15:10:37.009Z,1.15
2022-09-27T15:13:05.777Z,1.08
2022-09-27T15:15:40.055Z,1.30
2022-09-27T15:18:42.810Z,1.20
2022-09-27T15:21:33.722Z,1.35
2022-09-27T15:24:49.257Z,1.45
2022-09-27T15:27:24.568Z,1.50
2022-09-27T15:29:56.144Z,1.88
2022-09-27T15:32:27.376Z,1.63
2022-09-27T15:34:57.191Z,1.58
2022-09-27T15:37:40.286Z,3.05
2022-09-27T15:40:57.906Z,2.20
2022-09-27T15:43:47.175Z,2.10
2022-09-27T15:46:37.573Z,2.00
2022-09-27T15:49:17.564Z,2.60
2022-09-27T15:51:51.951Z,2.58
2022-09-27T15:54:25.405Z,1.58
2022-09-27T15:56:56.200Z,2.17
2022-09-27T15:59:31.147Z,1.65
2022-09-27T16:02:07.527Z,1.50
2022-09-27T16:04:35.946Z,2.05
2022-09-27T16:07:05.431Z,2.13
2022-09-27T16:09:33.383Z,2.28
2022-09-27T16:12:01.304Z,1.88
2022-09-27T16:14:28.944Z,1.45
2022-09-27T16:17:01.089Z,2.00
2022-09-27T16:19:28.733Z,2.45
2022-09-27T16:21:56.364Z,1.60
2022-09-27T16:24:28.875Z,1.74
2022-09-27T16:26:56.599Z,2.00
2022-09-27T16:29:24.454Z,2.03
2022-09-27T16:31:53.667Z,2.60
2022-09-27T16:34:22.653Z,2.95
2022-09-27T16:36:50.931Z,3.17
2022-09-27T16:39:18.616Z,2.50
2022-09-27T16:41:46.378Z,2.90
2022-09-27T16:44:17.560Z,2.50
2022-09-27T16:46:48.955Z,2.30
2022-09-27T16:49:35.412Z,2.15
2022-09-27T16:52:03.325Z,1.35
2022-09-27T16:54:31.409Z,1.50
2022-09-27T16:56:59.960Z,1.92
2022-09-27T16:59:28.151Z,1.20
2022-09-27T17:01:58.915Z,0.90
2022-09-27T17:04:28.254Z,1.08
2022-09-27T17:06:57.088Z,1.63
2022-09-27T17:09:25.369Z,1.45
2022-09-27T17:11:53.269Z,2.00
2022-09-27T17:14:21.141Z,1.77
2022-09-27T17:16:49.587Z,2.22
2022-09-27T17:19:18.482Z,2.20
2022-09-27T17:21:46.775Z,2.30
2022-09-27T17:24:14.485Z,1.98
2022-09-27T17:26:43.001Z,2.33
2022-09-27T17:29:12.659Z,2.05
2022-09-27T17:31:42.496Z,1.92
2022-09-27T17:34:12.904Z,1.70
2022-09-27T17:36:48.241Z,1.45
2022-09-27T17:39:21.199Z,1.77
2022-09-27T17:41:50.444Z,1.50
2022-09-27T17:44:19.214Z,1.50
2022-09-27T17:46:47.681Z,1.67
2022-09-27T17:49:34.046Z,2.08
2022-09-27T17:52:02.109Z,7.18
2022-09-27T17:54:29.910Z,5.22
2022-09-27T17:56:57.589Z,2.50
2022-09-27T17:59:26.103Z,3.10
2022-09-27T18:01:53.875Z,3.63
2022-09-27T18:04:21.545Z,3.03
2022-09-27T18:06:49.258Z,3.95
2022-09-27T18:09:18.716Z,3.90
2022-09-27T18:11:46.506Z,4.20
2022-09-27T18:14:14.871Z,3.58
2022-09-27T18:16:44.165Z,3.50
2022-09-27T18:19:15.913Z,4.10
2022-09-27T18:21:44.307Z,4.13
2022-09-27T18:24:14.259Z,4.45
2022-09-27T18:26:42.978Z,4.90
2022-09-27T18:29:14.143Z,4.68
2022-09-27T18:31:48.181Z,3.95
2022-09-27T18:34:20.283Z,3.47
2022-09-27T18:39:30.207Z,4.15
2022-09-27T18:41:58.093Z,4.35
2022-09-27T18:44:26.208Z,3.92
2022-09-27T18:46:53.947Z,3.83
2022-09-27T18:49:25.763Z,3.92
2022-09-27T18:51:55.494Z,4.07
2022-09-27T18:54:23.559Z,4.13
2022-09-27T18:56:52.457Z,3.78
2022-09-27T18:59:26.788Z,3.85
2022-09-27T19:01:54.917Z,3.65
2022-09-27T19:04:24.853Z,3.33
2022-09-27T19:06:55.178Z,3.90
2022-09-27T19:09:54.042Z,3.40
2022-09-27T19:12:26.991Z,3.50
2022-09-27T19:15:20.204Z,2.95
2022-09-27T19:17:52.426Z,2.50
2022-09-27T19:20:20.434Z,2.55
2022-09-27T19:22:48.081Z,3.17
2022-09-27T19:25:15.819Z,3.30
2022-09-27T19:27:43.498Z,3.30
2022-09-27T19:30:12.321Z,4.03
2022-09-27T19:32:40.358Z,3.90
2022-09-27T19:35:08.864Z,3.70
2022-09-27T19:37:36.530Z,3.85
2022-09-27T19:40:04.734Z,4.30
2022-09-27T19:42:32.749Z,5.10
2022-09-27T19:45:00.369Z,8.00
2022-09-27T19:47:28.419Z,5.32
2022-09-27T19:49:57.105Z,4.97
2022-09-27T19:52:24.992Z,5.18
2022-09-27T19:54:52.817Z,4.93
2022-09-27T19:57:20.584Z,5.93
2022-09-27T19:59:48.186Z,5.43
2022-09-27T20:02:16.007Z,5.20
2022-09-27T20:04:43.687Z,4.53
2022-09-27T20:07:11.346Z,4.20
2022-09-27T20:09:39.009Z,4.05
2022-09-27T20:12:07.039Z,4.38
2022-09-27T20:14:34.702Z,4.13
2022-09-27T20:17:02.359Z,3.45
2022-09-27T20:19:30.036Z,3.05
2022-09-27T20:21:57.851Z,2.97
2022-09-27T20:24:25.529Z,3.00
2022-09-27T20:26:53.441Z,2.67
2022-09-27T20:29:21.213Z,2.33
2022-09-27T20:32:09.443Z,2.33
2022-09-27T20:34:36.605Z,2.50
2022-09-27T20:37:04.238Z,2.75
2022-09-27T20:39:31.970Z,3.10
2022-09-27T20:41:59.605Z,2.63
2022-09-27T20:44:27.208Z,2.75
2022-09-27T20:46:55.029Z,1.90
2022-09-27T20:49:22.770Z,1.40
2022-09-27T20:51:51.416Z,1.80
2022-09-27T20:54:19.565Z,2.20
2022-09-27T20:56:48.607Z,2.30
2022-09-27T20:59:20.545Z,2.70
2022-09-27T21:01:51.439Z,2.72
2022-09-27T21:04:22.450Z,2.70
2022-09-27T21:06:51.587Z,2.75
2022-09-27T21:09:19.827Z,2.90
2022-09-27T21:11:49.329Z,2.88
2022-09-27T21:14:17.138Z,2.85
2022-09-27T21:16:45.107Z,2.80
2022-09-27T21:19:14.171Z,2.22
2022-09-27T21:21:41.973Z,2.25
2022-09-27T21:24:17.084Z,2.10
2022-09-27T21:26:44.793Z,1.33
2022-09-27T21:29:13.754Z,1.25
2022-09-27T21:31:42.915Z,1.40
2022-09-27T21:34:11.091Z,1.20
2022-09-27T21:36:39.528Z,1.15
2022-09-27T21:39:09.044Z,1.27
2022-09-27T21:41:38.842Z,1.10
2022-09-27T21:44:08.032Z,1.33
2022-09-27T21:46:40.845Z,1.40
2022-09-27T21:49:09.174Z,1.45
2022-09-27T21:51:42.217Z,2.05
2022-09-27T21:54:14.728Z,1.70
2022-09-27T21:56:44.009Z,4.75
2022-09-27T21:59:15.638Z,6.05
2022-09-27T22:01:45.712Z,6.82
2022-09-27T22:04:14.510Z,8.90
2022-09-27T22:06:42.464Z,7.53
2022-09-27T22:09:16.168Z,3.30
2022-09-27T22:11:44.528Z,3.10
2022-09-27T22:14:14.297Z,2.33
2022-09-27T22:16:42.508Z,2.70
2022-09-27T22:19:13.291Z,1.75
2022-09-27T22:21:42.088Z,1.67
2022-09-27T22:24:17.082Z,1.77
2022-09-27T22:26:50.711Z,1.75
2022-09-27T22:29:19.320Z,1.60
2022-09-27T22:31:47.666Z,1.52
2022-09-27T22:34:20.825Z,1.70
2022-09-27T22:36:48.500Z,1.80
2022-09-27T22:39:16.389Z,1.67
2022-09-27T22:41:44.219Z,1.52
2022-09-27T22:44:11.938Z,1.45
2022-09-27T22:46:39.668Z,1.40
2022-09-27T22:49:08.388Z,1.65
2022-09-27T22:51:36.063Z,2.03
2022-09-27T22:54:04.083Z,1.80
2022-09-27T22:56:31.860Z,1.70
2022-09-27T22:58:59.533Z,2.05
2022-09-27T23:01:27.140Z,2.03
2022-09-27T23:03:55.968Z,2.22
2022-09-27T23:06:23.755Z,2.58
2022-09-27T23:08:52.355Z,2.78
2022-09-27T23:11:22.310Z,2.83
2022-09-27T23:13:51.049Z,2.30
2022-09-27T23:16:24.457Z,2.92
2022-09-27T23:18:54.585Z,2.70
2022-09-27T23:21:26.110Z,2.45
2022-09-27T23:23:57.122Z,2.17
2022-09-27T23:26:26.750Z,2.63
2022-09-27T23:29:02.685Z,2.40
2022-09-27T23:31:32.419Z,2.20
2022-09-27T23:34:04.536Z,2.15
2022-09-27T23:36:32.195Z,2.05
2022-09-27T23:39:01.376Z,2.17
2022-09-27T23:41:29.231Z,2.30
2022-09-27T23:43:57.361Z,2.20
2022-09-27T23:46:25.412Z,2.60
2022-09-27T23:48:53.545Z,2.75
2022-09-27T23:51:21.294Z,2.85
